METAR Data
IDs: Format: Raw Decoded Include TAF

Data at: 0935 UTC 18 Jan 2022

KVTP 180915Z AUTO 26017G22KT 10SM CLR M06/M16 A2996 RMK AO2
KVTP 180855Z AUTO 27018G23KT 10SM CLR M06/M16 A2997 RMK AO2
KVTP 180835Z AUTO 27017KT 10SM CLR M06/M16 A2998 RMK AO2
KVTP 180815Z AUTO 27017G22KT 10SM CLR M06/M16 A2998 RMK AO2
KVTP 180755Z AUTO 27016KT 10SM SCT120 M06/M16 A2998 RMK AO2
KVTP 180735Z AUTO 27016G21KT 10SM CLR M06/M16 A2999 RMK AO2
KVTP 180715Z AUTO 27015G20KT 10SM CLR M05/M16 A3000 RMK AO2
KVTP 180655Z AUTO 27015KT 10SM CLR M05/M16 A3001 RMK AO2
KVTP 180635Z AUTO 27015KT 10SM CLR M04/M16 A3001 RMK AO2
KVTP 180615Z AUTO 27015KT 10SM CLR M04/M16 A3002 RMK AO2
KVTP 180555Z AUTO 27014KT 10SM CLR M04/M16 A3002 RMK AO2
KVTP 180535Z AUTO 27014KT 10SM CLR M03/M16 A3003 RMK AO2
KVTP 180515Z AUTO 27013KT 10SM CLR M03/M16 A3003 RMK AO2
KVTP 180455Z AUTO 26012KT 10SM CLR M02/M17 A3004 RMK AO2
KVTP 180435Z AUTO 26013G18KT 10SM CLR M02/M17 A3004 RMK AO2
KVTP 180415Z AUTO 26013KT 10SM CLR M02/M17 A3004 RMK AO2
KVTP 180355Z AUTO 26012KT 10SM CLR M02/M17 A3005 RMK AO2
KVTP 180335Z AUTO 26012G17KT 10SM CLR M02/M17 A3006 RMK AO2
KVTP 180315Z AUTO 26012KT 10SM CLR M03/M18 A3006 RMK AO2
KVTP 180255Z AUTO 27012KT 10SM CLR M02/M18 A3006 RMK AO2
KVTP 180235Z AUTO 27013KT 10SM CLR M02/M18 A3005 RMK AO2
KVTP 180215Z AUTO 27014KT 10SM CLR M02/M19 A3004 RMK AO2
KVTP 180155Z AUTO 27014KT 10SM CLR M02/M19 A3005 RMK AO2
KVTP 180135Z AUTO 26013G18KT 10SM CLR M02/M20 A3004 RMK AO2
KVTP 180115Z AUTO 27013G17KT 10SM CLR M01/M20 A3005 RMK AO2
KVTP 180055Z AUTO 26012KT 10SM CLR M01/M20 A3005 RMK AO2
KVTP 180035Z AUTO 26013G18KT 10SM CLR M01/M20 A3005 RMK AO2
KVTP 180015Z AUTO 26012KT 10SM CLR 00/M20 A3005 RMK AO2
KVTP 172355Z AUTO 27013G18KT 10SM CLR 00/M21 A3006 RMK AO2
KVTP 172335Z AUTO 26013G17KT 10SM CLR 00/M20 A3006 RMK AO2
KVTP 172315Z AUTO 26011KT 10SM CLR 00/M20 A3005 RMK AO2
KVTP 172255Z AUTO 26011KT 10SM CLR 00/M20 A3005 RMK AO2
KVTP 172235Z AUTO 26013G17KT 10SM CLR 01/M20 A3006 RMK AO2
KVTP 172215Z AUTO 27013KT 10SM CLR 01/M19 A3006 RMK AO2
KVTP 172155Z AUTO 27013G19KT 10SM CLR 01/M18 A3006 RMK AO2
KVTP 172135Z AUTO 26014G21KT 10SM CLR 01/M18 A3006 RMK AO2
KVTP 172115Z AUTO 26014G20KT 10SM CLR 01/M18 A3005 RMK AO2
KVTP 172055Z AUTO 26014G20KT 10SM CLR 00/M18 A3006 RMK AO2
KVTP 172035Z AUTO 26014G22KT 10SM CLR 00/M19 A3006 RMK AO2
KVTP 172015Z AUTO 25016G20KT 10SM CLR 01/M19 A3006 RMK AO2
KVTP 171955Z AUTO 25015KT 10SM CLR 01/M19 A3009 RMK AO2
KVTP 171935Z AUTO 26014G22KT 10SM CLR 01/M20 A3008 RMK AO2
KVTP 171915Z AUTO 26013G18KT 10SM CLR 01/M20 A3009 RMK AO2
KVTP 171855Z AUTO 26015KT 10SM CLR 00/M21 A3011 RMK AO2
KVTP 171835Z AUTO 26015G23KT 10SM CLR 00/M21 A3011 RMK AO2
KVTP 171815Z AUTO 27016G21KT 10SM CLR 00/M21 A3012 RMK AO2
KVTP 171755Z AUTO 26015G22KT 10SM CLR 00/M21 A3014 RMK AO2
KVTP 171735Z AUTO 26015KT 10SM CLR 00/M21 A3014 RMK AO2
KVTP 171715Z AUTO 27016G21KT 10SM CLR 00/M21 A3014 RMK AO2
KVTP 171655Z AUTO 26015G21KT 10SM CLR M02/M21 A3014 RMK AO2
KVTP 171635Z AUTO 26015G21KT 10SM CLR M02/M21 A3014 RMK AO2
KVTP 171615Z AUTO 27015G21KT 10SM CLR M02/M22 A3015 RMK AO2
KVTP 171555Z AUTO 26016G23KT 10SM CLR M02/M22 A3013 RMK AO2
KVTP 171535Z AUTO 26018G22KT 10SM CLR M03/M22 A3013 RMK AO2
KVTP 171515Z AUTO 27016G21KT 10SM CLR M03/M22 A3012 RMK AO2
KVTP 171455Z AUTO 26016KT 10SM CLR M03/M22 A3012 RMK AO2
KVTP 171435Z AUTO 26018G22KT 10SM CLR M03/M23 A3012 RMK AO2
KVTP 171415Z AUTO 26016G21KT 10SM CLR M03/M23 A3012 RMK AO2
KVTP 171355Z AUTO 26016G21KT 10SM CLR M03/M23 A3012 RMK AO2
KVTP 171335Z AUTO 26016G22KT 10SM CLR M03/M22 A3012 RMK AO2
KVTP 171315Z AUTO 26017G25KT 10SM CLR M03/M22 A3011 RMK AO2
KVTP 171255Z AUTO 26017G21KT 10SM CLR M03/M22 A3011 RMK AO2
KVTP 171235Z AUTO 26017G23KT 10SM CLR M03/M22 A3011 RMK AO2
KVTP 171215Z AUTO 26017G25KT 10SM CLR M05/M22 A3010 RMK AO2
KVTP 171155Z AUTO 26017G23KT 10SM CLR M05/M22 A3011 RMK AO2
KVTP 171135Z AUTO 26016G23KT 10SM CLR M05/M22 A3011 RMK AO2
KVTP 171115Z AUTO 26018G24KT 10SM CLR M04/M22 A3010 RMK AO2
KVTP 171055Z AUTO 26018G26KT 10SM CLR M03/M22 A3010 RMK AO2
KVTP 171035Z AUTO 26019G22KT 10SM CLR M03/M22 A3010 RMK AO2
KVTP 171015Z AUTO 26015G24KT 10SM CLR M03/M22 A3012 RMK AO2
KVTP 170955Z AUTO 26018G23KT 10SM CLR M03/M22 A3012 RMK AO2
KVTP 170935Z AUTO 26017G21KT 10SM CLR M04/M22 A3012 RMK AO2
KVTP 170915Z AUTO 26018G24KT 10SM CLR M02/M22 A3012 RMK AO2
KVTP 170855Z AUTO 26019G26KT 10SM CLR M02/M23 A3012 RMK AO2
KVTP 170835Z AUTO 26016G22KT 10SM CLR M02/M23 A3013 RMK AO2
KVTP 170815Z AUTO 26018G22KT 10SM CLR M02/M22 A3014 RMK AO2
KVTP 170755Z AUTO 26017G24KT 10SM CLR M02/M22 A3014 RMK AO2
KVTP 170735Z AUTO 26015G22KT 10SM CLR M02/M22 A3015 RMK AO2
KVTP 170715Z AUTO 25016G22KT 10SM CLR M03/M21 A3016 RMK AO2
KVTP 170655Z AUTO 26015KT 10SM CLR M03/M21 A3017 RMK AO2
KVTP 170635Z AUTO 27015G19KT 10SM CLR M03/M20 A3018 RMK AO2
KVTP 170615Z AUTO 27015KT 10SM CLR M03/M20 A3018 RMK AO2
KVTP 170555Z AUTO 27013KT 10SM CLR M03/M21 A3020 RMK AO2
KVTP 170535Z AUTO 27012G16KT 10SM CLR M03/M21 A3021 RMK AO2
KVTP 170515Z AUTO 26011KT 10SM CLR M03/M21 A3021 RMK AO2
KVTP 170455Z AUTO 27010KT 10SM CLR M03/M21 A3022 RMK AO2
KVTP 170435Z AUTO 27010KT 10SM CLR M03/M20 A3023 RMK AO2
KVTP 170415Z AUTO 27009KT 10SM CLR M03/M20 A3023 RMK AO2
KVTP 170355Z AUTO 27006KT 10SM CLR M03/M20 A3023 RMK AO2
KVTP 170335Z AUTO 00000KT 10SM CLR M01/M21 A3024 RMK AO2
KVTP 170315Z AUTO 29004KT 10SM CLR M02/M19 A3024 RMK AO2
KVTP 170255Z AUTO 28003KT 10SM CLR M01/M20 A3024 RMK AO2
KVTP 170235Z AUTO 00000KT 10SM CLR M01/M21 A3023 RMK AO2
KVTP 170215Z AUTO 28006KT 10SM CLR 00/M21 A3023 RMK AO2
KVTP 170155Z AUTO 27006KT 10SM CLR M01/M21 A3023 RMK AO2
KVTP 170135Z AUTO 27006KT 10SM CLR M01/M20 A3023 RMK AO2
KVTP 170115Z AUTO 27007KT 10SM CLR M02/M18 A3022 RMK AO2
KVTP 170055Z AUTO 27007KT 10SM CLR M02/M19 A3021 RMK AO2
KVTP 170035Z AUTO 27007KT 10SM CLR M01/M19 A3020 RMK AO2
KVTP 170015Z AUTO 27009KT 10SM CLR M01/M19 A3021 RMK AO2
KVTP 162355Z AUTO 27009KT 10SM CLR 00/M18 A3021 RMK AO2
KVTP 162335Z AUTO 26009KT 10SM CLR 00/M19 A3019 RMK AO2
KVTP 162315Z AUTO 27008KT 10SM CLR 00/M18 A3020 RMK AO2
KVTP 162255Z AUTO 26010KT 10SM CLR 00/M19 A3021 RMK AO2
KVTP 162235Z AUTO 26010KT 10SM CLR 00/M18 A3020 RMK AO2
KVTP 162215Z AUTO 25010KT 10SM CLR 00/M19 A3019 RMK AO2
KVTP 162155Z AUTO 26010G15KT 10SM CLR 01/M18 A3019 RMK AO2